Time;durP1;ratioP1;P1;durP2;ratioP2;P2;SDS_P1;SDS_P2;PMS_P1;PMS_P2;Temp;Humidity;BMP_temperature;BMP_pressure;BME280_temperature;BME280_humidity;BME280_pressure;Samples;Min_cycle;Max_cycle;Signal;HPM_P1;HPM_P2
2022/01/02 00:00:40;;;;;;;2.45;1.55;;;;;;;10.71;67.92;99719.73;1805826;78;21044;-65
2022/01/02 00:03:08;;;;;;;1.98;1.67;;;;;;;10.69;67.87;99723.06;1805542;77;20969;-65
2022/01/02 00:05:42;;;;;;;2.05;1.57;;;;;;;10.67;67.78;99730.88;1805208;77;21087;-64
2022/01/02 00:08:08;;;;;;;3.20;1.50;;;;;;;10.64;67.74;99736.02;1812715;78;21133;-65
2022/01/02 00:10:49;;;;;;;2.00;1.37;;;;;;;10.62;67.65;99742.85;1823974;77;21460;-65
2022/01/02 00:13:29;;;;;;;2.27;1.55;;;;;;;10.59;67.58;99743.17;1823286;77;21502;-65
2022/01/02 00:15:56;;;;;;;2.87;1.92;;;;;;;10.57;67.50;99757.63;1734617;80;20989;-66
2022/01/02 00:18:28;;;;;;;2.50;1.50;;;;;;;10.53;67.44;99765.61;1747223;80;21057;-63
2022/01/02 00:20:56;;;;;;;1.57;1.47;;;;;;;10.52;67.40;99778.55;1768550;78;21201;-64
2022/01/02 00:23:29;;;;;;;1.82;1.25;;;;;;;10.50;67.34;99777.38;1761850;80;21032;-64
2022/01/02 00:25:55;;;;;;;1.98;1.35;;;;;;;10.47;67.28;99788.83;1749033;78;21084;-64
2022/01/02 00:28:23;;;;;;;2.72;1.57;;;;;;;10.45;67.24;99798.31;1768588;79;21053;-65
2022/01/02 00:30:49;;;;;;;3.20;1.72;;;;;;;10.42;67.18;99786.17;1776847;80;21073;-63
2022/01/02 00:33:18;;;;;;;1.40;1.17;;;;;;;10.41;67.11;99796.95;1758705;79;21828;-64
2022/01/02 00:35:44;;;;;;;2.40;1.65;;;;;;;10.38;67.07;99799.45;1715594;81;21089;-64
2022/01/02 00:38:19;;;;;;;1.55;1.35;;;;;;;10.38;67.02;99806.60;1773739;80;21041;-65
2022/01/02 00:40:45;;;;;;;1.25;1.10;;;;;;;10.36;66.95;99812.58;1765975;80;21068;-64
2022/01/02 00:43:13;;;;;;;1.40;1.12;;;;;;;10.34;66.89;99810.08;1764766;80;21158;-64
2022/01/02 00:45:46;;;;;;;1.77;1.50;;;;;;;10.33;66.84;99823.52;1750969;80;21761;-64
2022/01/02 00:48:27;;;;;;;2.15;1.50;;;;;;;10.29;66.78;99811.53;1756903;78;21600;-64
2022/01/02 00:51:01;;;;;;;2.52;1.40;;;;;;;10.30;66.77;99826.02;1752406;78;21046;-64
2022/01/02 00:53:36;;;;;;;1.70;1.25;;;;;;;10.28;66.72;99821.84;1756294;80;22705;-64
2022/01/02 00:56:03;;;;;;;2.60;1.20;;;;;;;10.26;66.69;99825.98;1762118;78;21042;-64
2022/01/02 00:58:53;;;;;;;1.90;1.55;;;;;;;10.24;66.63;99822.66;1751398;78;21149;-66
2022/01/02 01:01:24;;;;;;;2.50;1.45;;;;;;;10.22;66.60;99837.42;1758011;80;20994;-64
2022/01/02 01:03:53;;;;;;;2.15;1.55;;;;;;;10.20;66.56;99831.45;1763058;79;21013;-65
2022/01/02 01:06:25;;;;;;;1.80;1.10;;;;;;;10.19;66.51;99820.98;1751022;80;21033;-64
2022/01/02 01:08:58;;;;;;;2.22;1.32;;;;;;;10.17;66.50;99810.52;1747298;80;21552;-64
2022/01/02 01:11:27;;;;;;;2.08;1.42;;;;;;;10.16;66.45;99817.31;1752248;80;21920;-64
2022/01/02 01:13:55;;;;;;;1.30;1.10;;;;;;;10.15;66.38;99820.98;1762923;78;21518;-64
2022/01/02 01:16:22;;;;;;;1.30;1.10;;;;;;;10.13;66.36;99825.12;1768210;78;21513;-65
2022/01/02 01:18:49;;;;;;;1.35;1.20;;;;;;;10.13;66.35;99828.28;1747328;80;21545;-64
2022/01/02 01:21:17;;;;;;;2.05;1.10;;;;;;;10.11;66.30;99825.78;1748501;78;21108;-65
2022/01/02 01:23:43;;;;;;;1.62;1.45;;;;;;;10.11;66.27;99836.91;1763290;79;21147;-64
2022/01/02 01:26:11;;;;;;;1.17;1.00;;;;;;;10.10;66.20;99837.88;1747263;80;21545;-65
2022/01/02 01:28:39;;;;;;;1.45;1.07;;;;;;;10.09;66.14;99839.71;1747470;79;21316;-65
2022/01/02 01:31:07;;;;;;;1.65;1.10;;;;;;;10.08;66.09;99845.18;1747264;80;21069;-63
2022/01/02 01:33:35;;;;;;;1.40;1.20;;;;;;;10.08;66.03;99846.50;1758176;78;21058;-65
2022/01/02 01:36:01;;;;;;;2.58;1.30;;;;;;;10.06;66.03;99856.45;1761609;78;21144;-64
2022/01/02 01:38:29;;;;;;;1.60;1.20;;;;;;;10.06;65.97;99860.44;1747996;80;21541;-63
2022/01/02 01:41:06;;;;;;;1.07;0.95;;;;;;;10.04;65.91;99855.28;1761848;78;21063;-63
2022/01/02 01:43:53;;;;;;;1.05;0.95;;;;;;;10.03;65.85;99857.12;1756476;78;21033;-63
2022/01/02 01:46:08;;;;;;;1.17;1.07;;;;;;;10.02;65.83;99855.47;1747133;80;21077;-63
2022/01/02 01:48:35;;;;;;;1.30;1.20;;;;;;;10.01;65.78;99860.43;1763988;80;21147;-64
2022/01/02 01:51:02;;;;;;;1.30;0.90;;;;;;;10.01;65.75;99866.24;1764229;79;20994;-64
2022/01/02 01:53:28;;;;;;;1.47;1.07;;;;;;;9.99;65.71;99854.96;1769032;78;21041;-64
2022/01/02 01:55:56;;;;;;;1.62;1.45;;;;;;;9.98;65.67;99872.69;1749814;80;21041;-63
2022/01/02 01:58:24;;;;;;;1.30;1.10;;;;;;;9.99;65.65;99872.21;1776893;78;21034;-64
2022/01/02 02:00:50;;;;;;;1.12;0.98;;;;;;;9.98;65.58;99880.64;1763112;79;21096;-63
2022/01/02 02:03:20;;;;;;;1.10;1.00;;;;;;;9.97;65.53;99884.30;1772896;78;21023;-65
2022/01/02 02:05:47;;;;;;;1.25;1.05;;;;;;;9.95;65.48;99880.98;1760470;79;21611;-64
2022/01/02 02:08:16;;;;;;;1.67;1.25;;;;;;;9.95;65.42;99877.51;1772048;80;21524;-64
2022/01/02 02:10:46;;;;;;;0.80;0.80;;;;;;;9.95;65.37;99881.48;1772926;78;21100;-64
2022/01/02 02:13:12;;;;;;;1.95;1.12;;;;;;;9.94;65.34;99889.09;1767704;79;21136;-64
2022/01/02 02:15:42;;;;;;;1.02;0.93;;;;;;;9.93;65.33;99889.60;1766537;79;21004;-63
2022/01/02 02:18:09;;;;;;;1.05;0.95;;;;;;;9.91;65.28;99888.08;1766882;79;21043;-64
2022/01/02 02:20:37;;;;;;;1.10;0.90;;;;;;;9.90;65.24;99903.18;1747400;80;21597;-64
2022/01/02 02:23:14;;;;;;;1.20;1.02;;;;;;;9.90;65.18;99908.48;1775424;79;21067;-64
2022/01/02 02:25:43;;;;;;;1.30;0.90;;;;;;;9.88;65.15;99902.52;1771113;79;21133;-64
2022/01/02 02:28:13;;;;;;;1.05;0.90;;;;;;;9.88;65.11;99909.14;1766077;80;21007;-63
2022/01/02 02:30:43;;;;;;;1.35;0.90;;;;;;;9.87;65.09;99900.86;1755721;80;21560;-64
2022/01/02 02:33:10;;;;;;;1.50;1.10;;;;;;;9.86;65.06;99913.78;1748243;80;21033;-64
2022/01/02 02:35:38;;;;;;;1.40;1.20;;;;;;;9.86;65.01;99910.30;1786940;79;21552;-64
2022/01/02 02:38:07;;;;;;;1.65;0.93;;;;;;;9.85;64.95;99918.77;1768901;79;21134;-65
2022/01/02 02:40:34;;;;;;;2.25;1.30;;;;;;;9.83;64.90;99906.98;1760603;80;22015;-63
2022/01/02 02:43:08;;;;;;;1.55;0.98;;;;;;;9.84;64.87;99913.94;1769693;80;21052;-63
2022/01/02 02:51:18;;;;;;;1.17;0.98;;;;;;;9.81;64.70;99927.53;1766726;79;21152;-63
2022/01/02 02:53:46;;;;;;;1.70;0.95;;;;;;;9.79;64.67;99924.69;1787258;79;21037;-63
2022/01/02 02:56:27;;;;;;;1.30;0.85;;;;;;;9.78;64.63;99929.17;1768412;80;21069;-63
2022/01/02 02:58:57;;;;;;;0.85;0.80;;;;;;;9.77;64.61;99934.63;1747758;80;21031;-62
2022/01/02 03:01:28;;;;;;;0.70;0.70;;;;;;;9.75;64.56;99938.75;1766607;78;21012;-63
2022/01/02 03:03:54;;;;;;;1.47;1.00;;;;;;;9.75;64.56;99942.73;1781491;79;21094;-63
2022/01/02 03:06:22;;;;;;;1.45;1.20;;;;;;;9.74;64.49;99941.59;1767271;78;20982;-63
2022/01/02 03:08:51;;;;;;;1.10;1.00;;;;;;;9.74;64.44;99952.20;1787591;79;21016;-63
2022/01/02 03:11:21;;;;;;;1.17;1.00;;;;;;;9.73;64.38;99949.20;1746116;80;20994;-64
2022/01/02 03:13:50;;;;;;;1.15;0.98;;;;;;;9.72;64.34;99952.36;1750044;80;21052;-63
2022/01/02 03:16:17;;;;;;;0.98;0.85;;;;;;;9.71;64.28;99953.83;1764011;80;21096;-63
2022/01/02 03:18:45;;;;;;;1.15;1.05;;;;;;;9.71;64.23;99952.51;1767405;80;21514;-63
2022/01/02 03:21:13;;;;;;;1.40;0.90;;;;;;;9.70;64.19;99954.34;1753969;80;21529;-66
2022/01/02 03:23:40;;;;;;;1.37;1.27;;;;;;;9.69;64.10;99961.94;1752537;80;21101;-63
2022/01/02 03:26:08;;;;;;;1.15;0.88;;;;;;;9.69;64.09;99959.80;1744398;80;21041;-63
2022/01/02 03:28:35;;;;;;;1.07;1.00;;;;;;;9.68;64.05;99962.09;1755846;79;21153;-63
2022/01/02 03:31:03;;;;;;;0.95;0.82;;;;;;;9.67;63.97;99971.88;1777963;80;21011;-65
2022/01/02 03:33:32;;;;;;;1.10;1.00;;;;;;;9.65;63.91;99964.58;1783428;80;21021;-62
2022/01/02 03:35:59;;;;;;;1.07;0.90;;;;;;;9.64;63.87;99979.67;1754965;80;21544;-62
2022/01/02 03:38:26;;;;;;;1.17;1.07;;;;;;;9.63;63.81;99987.27;1768308;80;21006;-62
2022/01/02 03:40:53;;;;;;;1.07;0.90;;;;;;;9.62;63.78;99989.60;1761256;80;21147;-61
2022/01/02 03:43:20;;;;;;;1.55;1.12;;;;;;;9.62;63.73;99996.73;1782617;80;21022;-62
2022/01/02 03:45:47;;;;;;;1.10;1.00;;;;;;;9.61;63.66;100006.48;1758137;80;21014;-63
2022/01/02 03:48:14;;;;;;;1.52;1.35;;;;;;;9.61;63.59;100009.65;1767729;80;21006;-62
2022/01/02 03:50:41;;;;;;;0.95;0.95;;;;;;;9.59;63.57;100011.13;1759028;80;21053;-64
2022/01/02 03:53:08;;;;;;;1.20;1.00;;;;;;;9.58;63.52;100018.76;1752909;80;21119;-63
2022/01/02 03:55:34;;;;;;;0.95;0.93;;;;;;;9.59;63.47;100035.50;1763604;79;21577;-64
2022/01/02 03:58:02;;;;;;;1.32;1.10;;;;;;;9.58;63.44;100035.14;1760334;80;21541;-64
2022/01/02 04:00:29;;;;;;;1.20;1.10;;;;;;;9.57;63.38;100050.73;1761856;80;21020;-64
2022/01/02 04:02:56;;;;;;;1.05;0.90;;;;;;;9.56;63.32;100047.73;1763693;80;21065;-63
2022/01/02 04:05:22;;;;;;;1.57;1.00;;;;;;;9.54;63.33;100046.58;1752545;80;21159;-62
2022/01/02 04:07:49;;;;;;;2.05;1.10;;;;;;;9.54;63.26;100057.66;1753537;80;21143;-62
2022/01/02 04:10:17;;;;;;;1.20;1.00;;;;;;;9.52;63.20;100055.19;1752635;80;21641;-62
2022/01/02 04:12:44;;;;;;;1.05;0.95;;;;;;;9.53;63.18;100063.97;1774091;80;21085;-62
2022/01/02 04:15:13;;;;;;;1.07;0.98;;;;;;;9.52;63.14;100071.56;1772394;80;21029;-62
2022/01/02 04:17:42;;;;;;;0.95;0.90;;;;;;;9.51;63.08;100068.59;1768273;80;21151;-62
2022/01/02 04:20:12;;;;;;;1.02;0.90;;;;;;;9.51;63.06;100077.37;1780641;80;21089;-62
2022/01/02 04:22:40;;;;;;;0.80;0.80;;;;;;;9.49;63.01;100069.24;1758723;80;21157;-63
2022/01/02 04:25:09;;;;;;;1.37;1.10;;;;;;;9.48;62.95;100068.38;1758758;80;21297;-65
2022/01/02 04:27:37;;;;;;;1.10;1.00;;;;;;;9.48;62.92;100076.34;1758707;80;21623;-62
2022/01/02 04:30:10;;;;;;;1.20;1.10;;;;;;;9.47;62.89;100074.69;1776155;80;21153;-64
2022/01/02 04:32:38;;;;;;;1.15;1.00;;;;;;;9.47;62.83;100083.97;1759717;80;21870;-62
2022/01/02 04:35:05;;;;;;;1.57;1.20;;;;;;;9.46;62.78;100076.98;1765040;80;21066;-63
2022/01/02 04:37:32;;;;;;;1.02;0.93;;;;;;;9.44;62.73;100085.13;1774210;80;21061;-63
2022/01/02 04:39:59;;;;;;;0.80;0.80;;;;;;;9.43;62.70;100093.22;1763752;80;21057;-62
2022/01/02 04:42:30;;;;;;;1.17;1.07;;;;;;;9.42;62.63;100088.89;1786349;80;22047;-63
2022/01/02 04:44:57;;;;;;;1.12;1.02;;;;;;;9.42;62.58;100098.17;1771153;80;21077;-62
2022/01/02 04:47:23;;;;;;;0.72;0.72;;;;;;;9.40;62.54;100104.95;1759645;80;21018;-62
2022/01/02 04:49:50;;;;;;;0.90;0.90;;;;;;;9.40;62.50;100113.41;1758785;80;21584;-62
2022/01/02 04:52:16;;;;;;;1.20;1.00;;;;;;;9.39;62.44;100111.75;1771815;80;21085;-63
2022/01/02 04:54:45;;;;;;;1.30;1.10;;;;;;;9.38;62.40;100128.63;1787801;80;21567;-63
2022/01/02 04:57:13;;;;;;;1.42;1.20;;;;;;;9.37;62.35;100132.28;1769004;80;20991;-62
2022/01/02 04:59:40;;;;;;;0.93;0.90;;;;;;;9.37;62.30;100135.77;1758767;80;21073;-63
2022/01/02 05:02:07;;;;;;;0.80;0.80;;;;;;;9.36;62.23;100145.19;1767475;80;21030;-62
2022/01/02 05:04:35;;;;;;;1.00;1.00;;;;;;;9.36;62.17;100141.20;1782893;80;21029;-63
2022/01/02 05:07:02;;;;;;;1.07;1.00;;;;;;;9.35;62.14;100139.52;1776446;80;21226;-62
2022/01/02 05:09:29;;;;;;;1.02;0.95;;;;;;;9.33;62.05;100143.67;1781175;80;21049;-63
2022/01/02 05:11:56;;;;;;;1.22;1.00;;;;;;;9.34;62.02;100145.83;1771780;79;21057;-62
2022/01/02 05:14:23;;;;;;;1.45;1.20;;;;;;;9.33;61.99;100140.17;1746963;81;21078;-63
2022/01/02 05:16:49;;;;;;;1.12;1.02;;;;;;;9.31;61.90;100142.14;1746982;80;21033;-62
2022/01/02 05:19:18;;;;;;;1.40;1.30;;;;;;;9.30;61.87;100141.81;1747488;80;22074;-64
2022/01/02 05:21:44;;;;;;;1.22;1.10;;;;;;;9.30;61.82;100136.52;1757052;79;21570;-62
2022/01/02 05:24:12;;;;;;;1.72;1.27;;;;;;;9.29;61.76;100138.80;1762379;80;21085;-62
2022/01/02 05:26:41;;;;;;;1.27;1.17;;;;;;;9.28;61.73;100133.17;1710120;82;21093;-62
2022/01/02 05:29:07;;;;;;;1.05;0.95;;;;;;;9.27;61.68;100145.58;1757997;80;21086;-62
2022/01/02 05:31:34;;;;;;;0.95;0.95;;;;;;;9.25;61.61;100140.45;1754226;78;21789;-63
2022/01/02 05:34:01;;;;;;;1.15;1.05;;;;;;;9.24;61.61;100143.24;1777440;80;21081;-63
2022/01/02 05:36:28;;;;;;;1.42;1.07;;;;;;;9.23;61.56;100137.12;1754639;81;21024;-63
2022/01/02 05:38:54;;;;;;;1.10;1.00;;;;;;;9.23;61.51;100144.21;1761804;79;21550;-63
2022/01/02 05:41:22;;;;;;;1.12;1.07;;;;;;;9.22;61.44;100144.71;1772168;80;21029;-62
2022/01/02 05:43:49;;;;;;;1.92;1.07;;;;;;;9.21;61.41;100147.04;1762925;80;22370;-63
2022/01/02 05:46:16;;;;;;;1.32;1.10;;;;;;;9.19;61.36;100158.28;1765136;78;21010;-63
2022/01/02 05:48:43;;;;;;;1.40;1.30;;;;;;;9.19;61.33;100160.08;1763816;78;21022;-63
2022/01/02 05:51:10;;;;;;;0.88;0.85;;;;;;;9.18;61.29;100155.77;1760455;79;21897;-62
2022/01/02 05:53:38;;;;;;;1.27;1.10;;;;;;;9.17;61.25;100170.83;1748597;80;21631;-62
2022/01/02 05:56:05;;;;;;;1.30;1.10;;;;;;;9.17;61.18;100173.97;1764758;80;21143;-63
2022/01/02 05:58:32;;;;;;;1.42;1.27;;;;;;;9.16;61.16;100173.64;1747609;80;21228;-62
2022/01/02 06:00:58;;;;;;;1.65;1.17;;;;;;;9.14;61.11;100177.77;1766845;78;21053;-63
2022/01/02 06:03:25;;;;;;;1.35;1.10;;;;;;;9.14;61.08;100191.52;1747321;78;20999;-63
2022/01/02 06:05:52;;;;;;;1.40;1.30;;;;;;;9.13;61.00;100188.02;1758394;78;21033;-62
2022/01/02 06:08:19;;;;;;;1.30;1.20;;;;;;;9.13;60.98;100190.66;1766339;80;21083;-63
2022/01/02 06:10:45;;;;;;;1.17;1.07;;;;;;;9.12;60.92;100192.98;1757613;78;21030;-62
2022/01/02 06:13:13;;;;;;;1.30;1.20;;;;;;;9.11;60.92;100192.63;1771479;80;21563;-62
2022/01/02 06:15:41;;;;;;;1.20;1.10;;;;;;;9.10;60.87;100201.58;1774792;80;21060;-62
2022/01/02 06:18:09;;;;;;;1.22;1.12;;;;;;;9.09;60.84;100202.55;1744493;80;21030;-62
2022/01/02 06:20:36;;;;;;;1.30;1.20;;;;;;;9.08;60.81;100195.59;1784588;78;22017;-62
2022/01/02 06:23:02;;;;;;;1.15;1.05;;;;;;;9.08;60.78;100198.70;1765049;80;21034;-63
2022/01/02 06:25:29;;;;;;;1.27;1.00;;;;;;;9.07;60.73;100201.03;1745254;80;21033;-62
2022/01/02 06:27:56;;;;;;;1.20;1.10;;;;;;;9.07;60.71;100203.68;1783367;78;21044;-62
2022/01/02 06:30:23;;;;;;;1.30;1.15;;;;;;;9.05;60.67;100207.30;1779719;78;21009;-63
2022/01/02 06:32:55;;;;;;;1.17;1.10;;;;;;;9.04;60.62;100213.59;1785586;79;21300;-62
2022/01/02 06:35:19;;;;;;;1.62;1.37;;;;;;;9.04;60.60;100212.77;1763644;80;21036;-62
2022/01/02 06:37:46;;;;;;;1.30;1.20;;;;;;;9.03;60.58;100206.61;1760296;80;22034;-63
2022/01/02 06:40:13;;;;;;;2.35;1.00;;;;;;;9.04;60.53;100215.42;1785648;80;21031;-62
2022/01/02 06:42:41;;;;;;;1.92;1.47;;;;;;;9.03;60.51;100220.36;1767316;80;21588;-62
2022/01/02 06:45:09;;;;;;;1.17;1.07;;;;;;;9.02;60.47;100221.33;1764750;80;21142;-63
2022/01/02 06:47:37;;;;;;;1.27;1.17;;;;;;;9.01;60.45;100219.18;1766052;79;21084;-62
2022/01/02 06:50:06;;;;;;;1.37;1.27;;;;;;;9.02;60.40;100224.84;1763730;80;21114;-62
2022/01/02 06:52:32;;;;;;;1.40;1.30;;;;;;;9.02;60.38;100230.61;1748659;80;21063;-62
2022/01/02 06:54:58;;;;;;;1.55;1.20;;;;;;;9.02;60.33;100231.93;1780159;78;21084;-63
2022/01/02 06:57:25;;;;;;;1.27;1.07;;;;;;;9.02;60.31;100230.61;1763510;80;21041;-62
2022/01/02 06:59:51;;;;;;;1.25;1.12;;;;;;;9.01;60.26;100221.83;1743805;80;21038;-62
2022/01/02 07:02:18;;;;;;;1.17;1.07;;;;;;;9.02;60.23;100231.46;1767246;78;21052;-63
2022/01/02 07:04:45;;;;;;;1.25;1.15;;;;;;;9.01;60.21;100228.45;1795063;80;21053;-63
2022/01/02 07:07:12;;;;;;;1.22;1.12;;;;;;;9.03;60.18;100225.66;1772054;80;21019;-63
2022/01/02 07:09:39;;;;;;;1.20;1.10;;;;;;;9.02;60.18;100231.46;1755757;80;21149;-62
2022/01/02 07:12:07;;;;;;;1.42;1.10;;;;;;;9.01;60.17;100228.45;1753792;80;21097;-63
2022/01/02 07:14:33;;;;;;;1.27;1.12;;;;;;;9.03;60.17;100229.64;1738507;81;21511;-62
2022/01/02 07:17:00;;;;;;;1.27;1.17;;;;;;;9.04;60.15;100229.50;1778138;80;21162;-62
2022/01/02 07:19:26;;;;;;;1.10;1.00;;;;;;;9.03;60.13;100227.81;1763192;80;21620;-63
2022/01/02 07:21:53;;;;;;;1.20;1.07;;;;;;;9.04;60.11;100230.83;1752811;80;21143;-62
2022/01/02 07:24:20;;;;;;;1.72;1.42;;;;;;;9.04;60.11;100236.13;1759616;80;21097;-62
2022/01/02 07:26:47;;;;;;;1.27;1.10;;;;;;;9.05;60.08;100234.30;1768138;80;21049;-63
2022/01/02 07:29:15;;;;;;;1.20;1.02;;;;;;;9.06;60.08;100246.59;1762245;79;21116;-63
2022/01/02 07:31:42;;;;;;;1.80;1.35;;;;;;;9.07;60.07;100240.79;1783456;80;21097;-62
2022/01/02 07:34:09;;;;;;;1.72;1.42;;;;;;;9.06;60.04;100249.23;1758055;80;21144;-63
2022/01/02 07:36:38;;;;;;;1.57;1.47;;;;;;;9.07;60.04;100253.54;1754947;80;21088;-63
2022/01/02 07:39:04;;;;;;;1.15;1.05;;;;;;;9.08;60.02;100256.55;1753449;80;21077;-62
2022/01/02 07:41:30;;;;;;;1.27;1.12;;;;;;;9.08;60.02;100254.37;1752651;80;21509;-62
2022/01/02 07:43:58;;;;;;;1.30;1.10;;;;;;;9.09;60.02;100263.50;1754858;80;21050;-64
2022/01/02 07:46:25;;;;;;;1.55;1.20;;;;;;;9.10;60.01;100262.54;1770840;80;21073;-64
2022/01/02 07:48:52;;;;;;;1.20;1.10;;;;;;;9.11;60.01;100258.89;1753298;80;21664;-66
2022/01/02 07:51:18;;;;;;;1.37;1.27;;;;;;;9.11;60.00;100268.16;1764063;80;21105;-66
2022/01/02 07:53:45;;;;;;;1.65;1.20;;;;;;;9.13;60.15;100218.99;1762909;80;21516;-64
2022/01/02 07:56:11;;;;;;;1.22;1.07;;;;;;;9.17;60.88;100272.05;1765394;80;21058;-63
2022/01/02 07:58:40;;;;;;;1.25;1.15;;;;;;;9.23;62.19;100272.32;1762482;80;21237;-63
2022/01/02 08:01:08;;;;;;;1.45;1.20;;;;;;;9.30;63.72;100264.60;1754375;80;21084;-64
2022/01/02 08:03:34;;;;;;;1.45;1.35;;;;;;;9.37;64.87;100268.84;1753367;80;21584;-63
2022/01/02 08:06:01;;;;;;;1.90;1.50;;;;;;;9.40;65.62;100267.20;1752751;80;21026;-64
2022/01/02 08:08:28;;;;;;;1.77;1.30;;;;;;;9.44;66.03;100265.92;1752709;80;21033;-65
2022/01/02 08:10:55;;;;;;;1.30;1.20;;;;;;;9.45;66.24;100271.09;1771409;80;21145;-67
2022/01/02 08:13:21;;;;;;;1.42;1.20;;;;;;;9.47;66.32;100268.79;1754034;80;21485;-64
2022/01/02 08:15:50;;;;;;;2.12;1.45;;;;;;;9.51;66.20;100276.29;1764992;80;21010;-64
2022/01/02 08:18:17;;;;;;;2.72;1.40;;;;;;;9.56;66.33;100269.20;1768622;80;21023;-65
2022/01/02 08:20:47;;;;;;;2.20;1.30;;;;;;;9.63;67.18;100221.21;1769190;80;21116;-65
2022/01/02 08:23:14;;;;;;;1.55;1.22;;;;;;;9.74;67.62;100219.67;1758245;80;21118;-65
2022/01/02 08:25:40;;;;;;;1.70;1.47;;;;;;;9.89;67.56;100219.98;1747676;80;21550;-65
2022/01/02 08:28:07;;;;;;;2.52;1.50;;;;;;;9.93;67.26;100228.45;1753700;79;21041;-64
2022/01/02 08:30:33;;;;;;;2.90;2.05;;;;;;;9.94;66.42;100226.98;1765576;80;21001;-66
2022/01/02 08:33:00;;;;;;;2.08;1.60;;;;;;;9.96;65.56;100215.71;1772138;80;21013;-65
2022/01/02 08:35:26;;;;;;;2.08;1.60;;;;;;;9.97;64.76;100218.72;1768617;80;21067;-65
2022/01/02 08:37:53;;;;;;;1.50;1.37;;;;;;;9.98;63.96;100213.73;1764422;80;21541;-66
2022/01/02 08:40:19;;;;;;;2.15;1.50;;;;;;;10.00;63.21;100219.73;1752667;80;21038;-65
2022/01/02 08:42:45;;;;;;;2.67;1.90;;;;;;;10.02;62.50;100204.51;1755401;80;21786;-65
2022/01/02 08:45:12;;;;;;;1.50;1.40;;;;;;;10.03;61.84;100200.85;1754858;80;21084;-66
2022/01/02 08:47:38;;;;;;;2.20;1.87;;;;;;;10.07;61.25;100208.52;1768191;80;21122;-67
2022/01/02 08:50:05;;;;;;;1.67;1.50;;;;;;;10.09;60.63;100206.55;1780689;80;21065;-68
2022/01/02 08:52:33;;;;;;;1.82;1.50;;;;;;;10.12;60.17;100200.91;1768429;80;21030;-65
2022/01/02 08:55:00;;;;;;;1.87;1.57;;;;;;;10.16;59.69;100196.48;1771184;80;21600;-65
2022/01/02 08:57:26;;;;;;;2.45;1.60;;;;;;;10.21;59.30;100197.34;1752450;80;21017;-67
2022/01/02 08:59:53;;;;;;;1.85;1.60;;;;;;;10.26;59.00;100194.20;1757321;80;21142;-65
2022/01/02 09:02:19;;;;;;;3.30;1.27;;;;;;;10.31;58.66;100194.11;1753523;80;21069;-66
2022/01/02 09:04:45;;;;;;;1.35;1.15;;;;;;;10.37;58.33;100193.98;1754948;80;21018;-66
2022/01/02 09:07:12;;;;;;;1.12;1.02;;;;;;;10.41;57.99;100184.25;1763508;80;21611;-65
2022/01/02 09:09:40;;;;;;;2.10;1.40;;;;;;;10.47;57.70;100174.82;1752704;80;21060;-63
2022/01/02 09:12:08;;;;;;;1.85;1.30;;;;;;;10.53;57.50;100172.86;1767417;80;21227;-64
2022/01/02 09:14:35;;;;;;;1.45;1.35;;;;;;;10.60;57.18;100171.25;1756076;80;21052;-67
2022/01/02 09:17:01;;;;;;;1.67;1.40;;;;;;;10.66;56.87;100196.33;1753258;80;21018;-67
2022/01/02 09:19:28;;;;;;;1.40;1.30;;;;;;;10.73;56.63;100197.88;1759188;80;21032;-68
2022/01/02 09:21:55;;;;;;;2.15;1.65;;;;;;;10.79;56.38;100199.89;1752519;80;21069;-67
2022/01/02 09:24:22;;;;;;;2.12;1.67;;;;;;;10.85;56.19;100199.75;1759241;80;21884;-68
2022/01/02 09:28:00;;;;;;;2.75;2.20;;;;;;;10.98;55.86;100195.66;1849859;76;27946;-67
2022/01/02 09:30:27;;;;;;;2.70;2.05;;;;;;;11.02;55.60;100193.52;1794417;78;21010;-66
2022/01/02 09:32:55;;;;;;;3.33;2.00;;;;;;;11.07;55.40;100196.55;1810333;77;21082;-66
2022/01/02 09:35:21;;;;;;;1.90;1.80;;;;;;;11.11;55.11;100193.90;1818602;78;20922;-66
2022/01/02 09:37:48;;;;;;;2.10;1.90;;;;;;;11.16;54.89;100192.08;1794273;78;21496;-67
2022/01/02 09:40:14;;;;;;;2.42;1.90;;;;;;;11.21;54.61;100195.92;1816245;77;20946;-68
2022/01/02 09:42:42;;;;;;;3.42;1.92;;;;;;;11.27;54.37;100200.27;1794763;78;21524;-67
2022/01/02 09:45:09;;;;;;;2.67;2.08;;;;;;;11.33;54.15;100207.59;1798400;77;21135;-68
2022/01/02 09:47:36;;;;;;;2.70;2.15;;;;;;;11.38;53.83;100202.63;1807507;78;21009;-68
2022/01/02 09:50:08;;;;;;;2.15;1.95;;;;;;;11.41;53.50;100200.48;1801792;78;20993;-68
2022/01/02 09:52:35;;;;;;;2.85;1.90;;;;;;;11.47;53.27;100202.14;1799081;77;21033;-68
2022/01/02 09:55:01;;;;;;;2.95;1.90;;;;;;;11.49;52.94;100194.35;1797138;78;21489;-67
2022/01/02 09:57:28;;;;;;;2.15;1.95;;;;;;;11.54;52.56;100189.35;1793629;78;21156;-68
2022/01/02 09:59:56;;;;;;;2.85;1.77;;;;;;;11.56;52.33;100196.67;1794968;77;21039;-68
2022/01/02 10:02:23;;;;;;;1.70;1.60;;;;;;;11.60;52.08;100189.20;1793857;78;20984;-67
2022/01/02 10:05:01;;;;;;;2.35;1.82;;;;;;;11.62;51.70;100192.53;1802104;78;21041;-67
2022/01/02 10:07:33;;;;;;;2.12;1.80;;;;;;;11.66;51.63;100235.11;1795622;77;21064;-69
2022/01/02 10:10:13;;;;;;;1.85;1.75;;;;;;;11.70;51.65;100228.97;1794979;78;21469;-67
2022/01/02 10:12:39;;;;;;;2.33;1.70;;;;;;;11.74;51.69;100232.97;1795391;77;20958;-68
2022/01/02 10:15:20;;;;;;;1.55;1.45;;;;;;;11.78;51.74;100219.66;1793591;78;21037;-67
2022/01/02 10:18:00;;;;;;;2.77;2.15;;;;;;;11.83;51.79;100225.84;1819890;77;21524;-67
2022/01/02 10:20:43;;;;;;;1.70;1.60;;;;;;;11.89;51.86;100216.72;1808492;78;21079;-65
2022/01/02 10:23:22;;;;;;;2.50;1.87;;;;;;;11.94;51.94;100217.06;1793936;78;21449;-66
2022/01/02 10:25:56;;;;;;;1.87;1.57;;;;;;;12.02;52.06;100238.05;1813481;78;21013;-65
2022/01/02 10:28:41;;;;;;;1.87;1.70;;;;;;;12.08;52.21;100236.05;1815092;77;21013;-66
2022/01/02 10:31:15;;;;;;;2.62;1.70;;;;;;;12.13;52.29;100233.22;1817820;78;21073;-64
2022/01/02 10:33:54;;;;;;;1.90;1.70;;;;;;;12.21;52.36;100228.39;1811935;78;21531;-64
2022/01/02 10:36:32;;;;;;;2.12;1.60;;;;;;;12.28;52.45;100221.38;1793860;78;21167;-63
2022/01/02 10:39:13;;;;;;;2.10;1.70;;;;;;;12.36;52.61;100217.40;1815499;78;21068;-65
2022/01/02 10:41:46;;;;;;;1.82;1.42;;;;;;;12.45;52.63;100210.72;1794842;77;21740;-65
2022/01/02 10:44:31;;;;;;;2.12;1.92;;;;;;;12.51;52.61;100214.03;1794181;78;21084;-65
2022/01/02 10:47:15;;;;;;;2.30;1.75;;;;;;;12.55;52.55;100216.18;1807898;77;21040;-66
2022/01/02 10:50:07;;;;;;;2.95;1.75;;;;;;;12.59;52.49;100214.87;1793118;78;21108;-66
2022/01/02 10:52:42;;;;;;;2.20;1.90;;;;;;;12.65;52.51;100229.36;1797688;78;21521;-63
2022/01/02 10:55:21;;;;;;;2.12;1.77;;;;;;;12.71;52.60;100230.48;1815066;78;20994;-63
2022/01/02 10:57:49;;;;;;;2.30;1.75;;;;;;;12.79;52.76;100232.64;1804611;78;21030;-66
2022/01/02 11:00:17;;;;;;;2.45;1.70;;;;;;;12.89;52.87;100219.63;1818700;77;22149;-66
2022/01/02 11:02:44;;;;;;;2.17;1.62;;;;;;;12.97;52.94;100217.74;1793119;78;21475;-68
2022/01/02 11:05:16;;;;;;;1.90;1.70;;;;;;;13.07;52.99;100212.72;1794901;78;21122;-66
2022/01/02 11:07:45;;;;;;;1.77;1.67;;;;;;;13.17;53.02;100204.00;1777376;79;21329;-69
2022/01/02 11:10:16;;;;;;;2.20;1.72;;;;;;;13.29;53.06;100215.11;1747389;80;21029;-66
2022/01/02 11:12:43;;;;;;;1.98;1.85;;;;;;;13.39;53.05;100217.11;1747353;79;21533;-68
2022/01/02 11:15:18;;;;;;;2.65;1.77;;;;;;;13.50;53.06;100204.72;1749293;79;21146;-67
2022/01/02 11:17:45;;;;;;;1.90;1.60;;;;;;;13.62;53.01;100201.61;1748876;80;21092;-65
2022/01/02 11:20:15;;;;;;;1.85;1.52;;;;;;;13.72;52.97;100203.57;1762140;78;21030;-71
2022/01/02 11:23:06;;;;;;;2.47;1.82;;;;;;;13.78;52.85;100206.86;1747326;80;21030;-65
2022/01/02 11:25:54;;;;;;;1.55;1.45;;;;;;;13.83;52.72;100202.31;1761422;79;21053;-62
2022/01/02 11:28:40;;;;;;;1.95;1.50;;;;;;;13.87;52.63;100208.47;1736513;80;21167;-65
2022/01/02 11:31:09;;;;;;;1.67;1.50;;;;;;;13.88;52.52;100206.11;1738891;81;21054;-66
2022/01/02 11:33:39;;;;;;;2.05;1.60;;;;;;;13.90;52.44;100206.77;1734993;81;21073;-66
2022/01/02 11:36:28;;;;;;;1.45;1.35;;;;;;;13.92;52.39;100215.94;1751756;79;21025;-66
2022/01/02 11:39:07;;;;;;;2.00;1.52;;;;;;;13.93;52.32;100210.42;1756145;81;21058;-65
2022/01/02 11:41:47;;;;;;;2.12;1.65;;;;;;;13.94;52.23;100189.87;1760614;81;21140;-68
2022/01/02 11:44:21;;;;;;;1.90;1.60;;;;;;;13.95;52.21;100187.55;1759994;81;20985;-66
2022/01/02 11:46:58;;;;;;;2.17;1.40;;;;;;;13.95;52.14;100183.03;1790880;78;21018;-65